North Island Naval Air Station-Halsey Field
KNZY : now visible

Airfield :











YOU CAN JOIN US ON...

 
LOGIN :

Register | Disclaimer

   EN    FR    IT 

 









Legend :    VFR   Marginal VFR   IFR   Intensive IFR   Very Intensive IFR
Visi :
Ceiling :
>= 8 km
>= 3000ft
5 to 8 km
1000 to 3000 ft
1500m to 5 km
500 to 1000 ft
800 to 1500m
200 to 500 ft
< 800m
< 200 ft
Symbols :   Thunderstorms  Fog  Heavy snow  Heavy precipitations  Wind > 20 kt






- Airport Elevation : 26 ft


KNZY - North Island Naval Air Station-Halsey Field

CURRENT METAR :
  • 310652Z AUTO 35003KT 4SM HZ CLR 17/14 A2998 RMK AO2 SLP153 T01670139 $

EXPIRED METARs :
  • 310633Z AUTO 00000KT 1 3/4SM BR 17/14 A2999 RMK AO2 T01670144 $
  • 310618Z AUTO 00000KT 1/4SM FG 17/15 A2999 RMK AO2 T01670150 $
  • 310608Z AUTO 00000KT 1/4SM FG SCT002 BKN006 17/14 A2999 RMK AO2 T01670144
  • 310552Z AUTO 00000KT 6SM BR SCT002 17/15 A2999 RMK AO2 SLP155 T01720150 10222 20167 53010
  • 310529Z AUTO 00000KT 6SM BR FEW007 17/16 A2999 RMK AO2 T01720156
  • 310452Z 00000KT 6SM BR SCT250 17/16 A2998 RMK AO2 SLP152 T01720156

TAF TAF KNZY
Valid from the 31 at 07:00 until the 01 at 07:00 UTC


3107/0107 VRB06KT 9999 FEW200 QHN2997INS
TEMPO 3109/3115 4800 BR BKN008 AUTOMATED SENSOR METWATCH 3107 TIL 3113 T14/3113Z T24/3123Z FS30149
KZLA FIR / North America



MET'MAP, your aeronautical weather chart ! - Copyright ORBIFLY December 2007 - Disclaimer

ORBIFLY MET'MAP TEAM :

Programming & Development : Alexandra Zaïnal
Concept & original design : Baudouin d'Aumeries
Assistance for programming : Marc-Olivier Méhu
Technical & hardware support : Manuel Goepfert

Contact : metmap@orbifly.com




SOURCES & CREDITS :

   NOAA       Earth
Advisory